createdAt,value
2017-11-14T00:02:23.350Z,27.13
2017-11-14T00:04:50.785Z,26.85
2017-11-14T00:07:18.381Z,29.42
2017-11-14T00:09:45.805Z,27.42
2017-11-14T00:12:13.234Z,29.12
2017-11-14T00:14:40.677Z,28.67
2017-11-14T00:17:08.101Z,27.52
2017-11-14T00:19:35.534Z,27.95
2017-11-14T00:22:02.977Z,29.55
2017-11-14T00:24:30.423Z,28.75
2017-11-14T00:26:57.844Z,28.77
2017-11-14T00:29:25.294Z,28.40
2017-11-14T00:31:52.720Z,30.77
2017-11-14T00:34:20.145Z,32.03
2017-11-14T00:36:47.598Z,30.30
2017-11-14T00:39:15.022Z,29.05
2017-11-14T00:41:42.470Z,29.42
2017-11-14T00:44:09.898Z,29.08
2017-11-14T00:46:37.334Z,32.30
2017-11-14T00:49:04.790Z,27.73
2017-11-14T00:51:32.218Z,28.67
2017-11-14T00:53:59.648Z,28.58
2017-11-14T00:56:27.085Z,29.90
2017-11-14T00:58:54.513Z,26.92
2017-11-14T01:01:21.941Z,29.58
2017-11-14T01:03:49.403Z,28.10
2017-11-14T01:06:16.833Z,27.92
2017-11-14T01:08:44.256Z,27.30
2017-11-14T01:11:11.698Z,29.70
2017-11-14T01:13:39.133Z,30.35
2017-11-14T01:16:06.653Z,28.70
2017-11-14T01:18:34.105Z,29.90
2017-11-14T01:21:01.571Z,28.98
2017-11-14T01:23:28.996Z,28.45
2017-11-14T01:25:56.417Z,29.15
2017-11-14T01:28:23.862Z,27.35
2017-11-14T01:30:51.286Z,26.10
2017-11-14T01:33:18.720Z,29.05
2017-11-14T01:35:46.165Z,28.20
2017-11-14T01:38:13.593Z,27.95
2017-11-14T01:40:41.017Z,31.23
2017-11-14T01:43:08.482Z,30.45
2017-11-14T01:45:36.017Z,30.27
2017-11-14T01:48:03.482Z,27.55
2017-11-14T01:50:30.927Z,26.12
2017-11-14T01:52:58.348Z,31.17
2017-11-14T01:55:25.773Z,27.37
2017-11-14T01:57:53.222Z,24.80
2017-11-14T02:00:32.513Z,25.42
2017-11-14T02:02:59.952Z,24.73
2017-11-14T02:05:27.377Z,27.45
2017-11-14T02:07:54.798Z,24.67
2017-11-14T02:10:22.315Z,28.38
2017-11-14T02:12:49.744Z,28.70
2017-11-14T02:15:17.184Z,27.37
2017-11-14T02:17:44.609Z,30.25
2017-11-14T02:20:12.041Z,30.42
2017-11-14T02:22:39.505Z,28.58
2017-11-14T02:25:06.938Z,28.15
2017-11-14T02:27:34.356Z,27.02
2017-11-14T02:30:01.808Z,28.10
2017-11-14T02:32:29.233Z,28.08
2017-11-14T02:34:56.666Z,29.80
2017-11-14T02:37:24.102Z,26.48
2017-11-14T02:39:51.529Z,23.67
2017-11-14T02:42:18.973Z,24.80
2017-11-14T02:44:46.404Z,24.92
2017-11-14T02:47:13.827Z,25.92
2017-11-14T02:49:41.246Z,27.85
2017-11-14T02:52:08.680Z,25.60
2017-11-14T02:54:36.108Z,26.70
2017-11-14T02:57:03.533Z,26.50
2017-11-14T02:59:30.975Z,24.00
2017-11-14T03:01:58.410Z,25.70
2017-11-14T03:04:25.834Z,24.92
2017-11-14T03:06:53.286Z,26.50
2017-11-14T03:09:20.705Z,27.13
2017-11-14T03:11:48.134Z,25.30
2017-11-14T03:14:15.602Z,26.40
2017-11-14T03:16:43.031Z,25.98
2017-11-14T03:19:10.455Z,27.90
2017-11-14T03:21:37.894Z,27.33
2017-11-14T03:24:05.317Z,26.25
2017-11-14T03:26:32.741Z,28.33
2017-11-14T03:29:00.187Z,29.70
2017-11-14T03:31:27.616Z,27.70
2017-11-14T03:33:55.041Z,26.37
2017-11-14T03:36:22.482Z,26.55
2017-11-14T03:38:49.906Z,23.77
2017-11-14T03:41:17.337Z,25.25
2017-11-14T03:43:44.782Z,28.83
2017-11-14T03:46:12.206Z,28.23
2017-11-14T03:48:39.630Z,23.35
2017-11-14T03:51:07.073Z,22.98
2017-11-14T03:53:34.498Z,23.27
2017-11-14T03:56:01.918Z,22.83
2017-11-14T03:58:29.371Z,23.15
2017-11-14T04:00:56.797Z,26.08
2017-11-14T04:03:24.229Z,23.50
2017-11-14T04:05:51.669Z,27.52
2017-11-14T04:08:19.098Z,26.60
2017-11-14T04:10:46.525Z,24.98
2017-11-14T04:13:13.985Z,27.25
2017-11-14T04:15:41.398Z,28.62
2017-11-14T04:18:08.826Z,26.33
2017-11-14T04:20:36.271Z,25.23
2017-11-14T04:23:03.694Z,26.20
2017-11-14T04:25:31.121Z,25.65
2017-11-14T04:27:58.595Z,25.92
2017-11-14T04:30:26.016Z,29.15
2017-11-14T04:32:53.433Z,26.37
2017-11-14T04:35:20.878Z,24.50
2017-11-14T04:37:48.297Z,24.17
2017-11-14T04:40:15.725Z,24.73
2017-11-14T04:42:43.166Z,25.15
2017-11-14T04:45:10.592Z,23.38
2017-11-14T04:47:38.016Z,26.35
2017-11-14T04:50:05.475Z,26.00
2017-11-14T04:52:32.898Z,25.95
2017-11-14T04:55:00.325Z,27.25
2017-11-14T04:57:27.765Z,25.55
2017-11-14T04:59:55.194Z,25.23
2017-11-14T05:02:22.613Z,25.45
2017-11-14T05:04:50.061Z,22.83
2017-11-14T05:07:17.498Z,25.20
2017-11-14T05:09:44.922Z,24.80
2017-11-14T05:12:12.362Z,24.20
2017-11-14T05:14:39.842Z,22.62
2017-11-14T05:17:07.266Z,22.87
2017-11-14T05:19:34.702Z,22.10
2017-11-14T05:22:02.086Z,25.05
2017-11-14T05:24:29.550Z,27.33
2017-11-14T05:26:56.990Z,24.85
2017-11-14T05:29:24.413Z,25.70
2017-11-14T05:31:51.837Z,28.20
2017-11-14T05:34:19.282Z,30.10
2017-11-14T05:36:46.710Z,27.83
2017-11-14T05:39:14.135Z,27.70
2017-11-14T05:41:41.577Z,26.17
2017-11-14T05:44:09.001Z,26.80
2017-11-14T05:46:36.432Z,24.60
2017-11-14T05:49:03.879Z,27.58
2017-11-14T05:51:31.300Z,27.92
2017-11-14T05:53:58.729Z,25.20
2017-11-14T05:56:26.178Z,25.60
2017-11-14T05:58:53.603Z,26.67
2017-11-14T06:01:21.027Z,27.05
2017-11-14T06:03:48.466Z,27.67
2017-11-14T06:06:15.885Z,24.40
2017-11-14T06:08:43.319Z,27.48
2017-11-14T06:11:10.766Z,27.70
2017-11-14T06:13:38.189Z,23.48
2017-11-14T06:16:05.613Z,28.30
2017-11-14T06:18:33.048Z,27.05
2017-11-14T06:21:00.470Z,21.62
2017-11-14T06:23:27.910Z,21.60
2017-11-14T06:25:55.360Z,20.40
2017-11-14T06:28:22.781Z,20.55
2017-11-14T06:30:50.214Z,19.87
2017-11-14T06:33:17.653Z,20.45
2017-11-14T06:35:45.075Z,21.55
2017-11-14T06:38:12.503Z,19.92
2017-11-14T06:40:39.946Z,20.33
2017-11-14T06:43:07.373Z,21.95
2017-11-14T06:45:34.797Z,19.83
2017-11-14T06:48:02.250Z,21.48
2017-11-14T06:50:29.675Z,23.30
2017-11-14T06:52:57.109Z,19.85
2017-11-14T06:55:24.546Z,21.30
2017-11-14T06:57:51.975Z,19.05
2017-11-14T07:00:19.398Z,20.10
2017-11-14T07:02:46.837Z,22.10
2017-11-14T07:05:14.257Z,24.80
2017-11-14T07:07:41.689Z,23.15
2017-11-14T07:10:09.129Z,22.05
2017-11-14T07:12:36.554Z,22.90
2017-11-14T07:15:03.982Z,23.08
2017-11-14T07:17:31.412Z,21.85
2017-11-14T07:19:58.845Z,19.55
2017-11-14T07:22:26.291Z,21.25
2017-11-14T07:24:53.731Z,17.65
2017-11-14T07:27:21.149Z,18.65
2017-11-14T07:29:48.593Z,21.15
2017-11-14T07:32:16.024Z,21.70
2017-11-14T07:34:43.445Z,21.55
2017-11-14T07:37:10.894Z,20.35
2017-11-14T07:39:38.330Z,22.65
2017-11-14T07:42:05.769Z,21.52
2017-11-14T07:44:33.198Z,20.70
2017-11-14T07:47:00.628Z,19.05
2017-11-14T07:49:28.066Z,16.30
2017-11-14T07:51:55.511Z,17.30
2017-11-14T07:54:22.930Z,18.35
2017-11-14T07:56:50.357Z,18.30
2017-11-14T07:59:17.803Z,18.55
2017-11-14T08:01:45.244Z,19.62
2017-11-14T08:04:12.686Z,17.35
2017-11-14T08:06:40.105Z,18.98
2017-11-14T08:09:07.549Z,17.92
2017-11-14T08:11:34.979Z,19.85
2017-11-14T08:14:02.410Z,20.25
2017-11-14T08:16:29.849Z,20.85
2017-11-14T08:18:57.278Z,18.37
2017-11-14T08:21:24.706Z,17.75
2017-11-14T08:23:52.147Z,18.42
2017-11-14T08:26:19.566Z,18.48
2017-11-14T08:28:46.987Z,18.70
2017-11-14T08:31:14.433Z,18.95
2017-11-14T08:33:41.858Z,22.00
2017-11-14T08:36:09.303Z,20.58
2017-11-14T08:38:36.753Z,20.80
2017-11-14T08:41:04.168Z,20.55
2017-11-14T08:43:31.603Z,21.55
2017-11-14T08:45:59.046Z,23.77
2017-11-14T08:48:26.474Z,22.60
2017-11-14T08:50:53.911Z,22.25
2017-11-14T08:53:21.353Z,23.35
2017-11-14T08:55:48.778Z,25.05
2017-11-14T08:58:16.211Z,23.95
2017-11-14T09:00:43.653Z,25.37
2017-11-14T09:03:11.085Z,23.98
2017-11-14T09:05:38.518Z,26.83
2017-11-14T09:08:05.971Z,23.38
2017-11-14T09:10:33.399Z,25.08
2017-11-14T09:13:00.821Z,22.95
2017-11-14T09:15:28.278Z,21.35
2017-11-14T09:17:55.705Z,21.48
2017-11-14T09:20:23.134Z,21.98
2017-11-14T09:22:50.618Z,22.25
2017-11-14T09:25:18.051Z,19.30
2017-11-14T09:27:45.486Z,19.80
2017-11-14T09:30:12.931Z,21.42
2017-11-14T09:32:40.348Z,20.42
2017-11-14T09:35:07.778Z,21.58
2017-11-14T09:37:35.226Z,21.27
2017-11-14T09:40:02.744Z,21.17
2017-11-14T09:42:30.162Z,22.70
2017-11-14T09:44:57.569Z,21.20
2017-11-14T09:47:25.038Z,22.85
2017-11-14T09:49:52.552Z,21.48
2017-11-14T09:52:20.004Z,21.30
2017-11-14T09:54:47.425Z,22.35
2017-11-14T09:57:14.854Z,22.13
2017-11-14T09:59:42.303Z,20.75
2017-11-14T10:02:09.734Z,22.95
2017-11-14T10:04:37.157Z,20.75
2017-11-14T10:07:04.598Z,21.27
2017-11-14T10:09:32.022Z,19.73
2017-11-14T10:11:59.458Z,22.05
2017-11-14T10:14:26.914Z,20.40
2017-11-14T10:16:54.354Z,21.30
2017-11-14T10:19:21.797Z,20.42
2017-11-14T10:21:49.228Z,24.70
2017-11-14T10:21:52.972Z,1.8
2017-11-14T10:24:16.668Z,25.90
2017-11-14T10:25:21.293Z,1.8
2017-11-14T10:26:44.116Z,26.35
2017-11-14T10:29:14.436Z,26.48
2017-11-14T10:31:41.879Z,24.55
2017-11-14T10:34:09.325Z,24.00
2017-11-14T10:36:36.758Z,25.00
2017-11-14T10:39:04.198Z,24.60
2017-11-14T10:41:31.738Z,24.00
2017-11-14T10:43:59.161Z,23.08
2017-11-14T10:46:26.593Z,24.33
2017-11-14T10:48:54.032Z,23.30
2017-11-14T10:51:21.456Z,23.87
2017-11-14T10:53:48.899Z,25.15
2017-11-14T10:56:16.346Z,24.50
2017-11-14T10:58:43.774Z,23.67
2017-11-14T11:01:11.203Z,23.90
2017-11-14T11:03:38.649Z,22.70
2017-11-14T11:06:06.069Z,21.58
2017-11-14T11:08:33.511Z,20.73
2017-11-14T11:11:00.971Z,21.73
2017-11-14T11:13:28.403Z,22.75
2017-11-14T11:15:55.838Z,22.90
2017-11-14T11:18:23.273Z,21.90
2017-11-14T11:20:50.702Z,23.70
2017-11-14T11:23:18.129Z,23.80
2017-11-14T11:25:45.575Z,23.85
2017-11-14T11:28:12.997Z,21.50
2017-11-14T11:30:40.430Z,21.23
2017-11-14T11:33:07.865Z,22.73
2017-11-14T11:35:35.301Z,24.60
2017-11-14T11:38:02.731Z,22.65
2017-11-14T11:40:30.197Z,22.95
2017-11-14T11:42:57.671Z,24.35
2017-11-14T11:45:25.141Z,23.40
2017-11-14T11:47:52.578Z,23.25
2017-11-14T11:50:20.017Z,23.02
2017-11-14T11:52:47.468Z,22.77
2017-11-14T11:55:14.907Z,20.48
2017-11-14T11:57:42.328Z,22.20
2017-11-14T12:00:09.766Z,23.20
2017-11-14T12:02:37.200Z,23.12
2017-11-14T12:05:04.623Z,22.42
2017-11-14T12:07:32.071Z,23.23
2017-11-14T12:09:59.494Z,23.20
2017-11-14T12:12:26.926Z,23.12
2017-11-14T12:14:54.373Z,23.00
2017-11-14T12:17:21.802Z,24.63
2017-11-14T12:19:49.227Z,24.80
2017-11-14T12:22:16.677Z,24.02
2017-11-14T12:24:44.101Z,22.73
2017-11-14T12:27:11.525Z,21.15
2017-11-14T12:29:38.978Z,21.12
2017-11-14T12:32:06.407Z,22.15
2017-11-14T12:34:33.838Z,21.50
2017-11-14T12:37:01.282Z,19.50
2017-11-14T12:39:28.705Z,20.58
2017-11-14T12:41:56.146Z,19.95
2017-11-14T12:44:23.594Z,20.65
2017-11-14T12:46:51.046Z,20.33
2017-11-14T12:49:18.474Z,19.60
2017-11-14T12:51:45.914Z,17.67
2017-11-14T12:54:13.370Z,19.95
2017-11-14T12:56:40.805Z,20.35
2017-11-14T12:59:08.237Z,19.73
2017-11-14T13:01:35.686Z,19.50
2017-11-14T13:04:03.125Z,19.05
2017-11-14T13:06:30.565Z,22.10
2017-11-14T13:07:06.974Z,1.8
2017-11-14T13:07:10.324Z,1.8
2017-11-14T13:08:57.989Z,19.62
2017-11-14T13:11:25.413Z,20.30
2017-11-14T13:13:13.688Z,1.8
2017-11-14T13:13:41.627Z,1.8
2017-11-14T13:13:52.850Z,21.60
2017-11-14T13:16:20.286Z,21.37
2017-11-14T13:18:47.729Z,20.60
2017-11-14T13:21:15.156Z,19.80
2017-11-14T13:23:42.603Z,20.75
2017-11-14T13:26:10.074Z,18.20
2017-11-14T13:28:37.481Z,19.48
2017-11-14T13:31:04.935Z,19.10
2017-11-14T13:33:32.377Z,21.33
2017-11-14T13:35:59.806Z,19.45
2017-11-14T13:38:27.246Z,19.27
2017-11-14T13:40:54.675Z,18.85
2017-11-14T13:43:22.121Z,18.20
2017-11-14T13:45:49.546Z,18.98
2017-11-14T13:48:16.973Z,18.62
2017-11-14T13:50:44.423Z,19.48
2017-11-14T13:53:11.867Z,19.58
2017-11-14T13:55:39.290Z,19.98
2017-11-14T13:58:06.754Z,18.65
2017-11-14T14:00:34.205Z,18.12
2017-11-14T14:03:01.631Z,18.73
2017-11-14T14:05:29.079Z,19.37
2017-11-14T14:07:56.510Z,20.20
2017-11-14T14:10:23.936Z,21.48
2017-11-14T14:12:51.377Z,19.75
2017-11-14T14:15:18.810Z,20.70
2017-11-14T14:17:46.242Z,20.17
2017-11-14T14:20:13.709Z,20.48
2017-11-14T14:22:41.157Z,20.52
2017-11-14T14:25:08.583Z,18.92
2017-11-14T14:27:36.026Z,21.30
2017-11-14T14:30:03.499Z,22.25
2017-11-14T14:32:30.925Z,21.23
2017-11-14T14:34:58.371Z,19.87
2017-11-14T14:37:25.799Z,21.67
2017-11-14T14:39:53.228Z,21.37
2017-11-14T14:42:20.673Z,20.05
2017-11-14T14:44:48.118Z,20.37
2017-11-14T14:47:15.534Z,21.73
2017-11-14T14:49:42.991Z,21.37
2017-11-14T14:52:10.422Z,23.10
2017-11-14T14:54:37.858Z,21.52
2017-11-14T14:57:05.306Z,22.37
2017-11-14T14:59:32.744Z,20.70
2017-11-14T15:02:00.165Z,21.05
2017-11-14T15:04:27.616Z,20.73
2017-11-14T15:06:55.051Z,22.05
2017-11-14T15:09:22.483Z,22.65
2017-11-14T15:11:49.921Z,21.20
2017-11-14T15:14:17.351Z,22.67
2017-11-14T15:16:44.773Z,21.62
2017-11-14T15:19:12.218Z,22.23
2017-11-14T15:21:39.654Z,22.90
2017-11-14T15:24:07.073Z,22.10
2017-11-14T15:26:34.592Z,21.77
2017-11-14T15:29:02.020Z,21.45
2017-11-14T15:31:29.474Z,22.87
2017-11-14T15:33:56.897Z,23.33
2017-11-14T15:36:24.324Z,23.87
2017-11-14T15:38:51.775Z,24.90
2017-11-14T15:41:19.202Z,22.67
2017-11-14T15:43:46.633Z,26.58
2017-11-14T15:46:14.070Z,25.37
2017-11-14T15:48:41.494Z,24.55
2017-11-14T15:51:08.970Z,25.92
2017-11-14T15:53:36.416Z,25.55
2017-11-14T15:56:03.854Z,24.87
2017-11-14T15:58:31.286Z,25.77
2017-11-14T16:00:58.728Z,23.85
2017-11-14T16:03:26.150Z,26.25
2017-11-14T16:05:53.577Z,27.92
2017-11-14T16:08:21.042Z,26.25
2017-11-14T16:10:48.486Z,29.63
2017-11-14T16:13:15.925Z,29.75
2017-11-14T16:15:43.354Z,28.55
2017-11-14T16:18:10.798Z,29.17
2017-11-14T16:20:38.222Z,29.42
2017-11-14T16:23:05.645Z,30.12
2017-11-14T16:25:33.090Z,29.05
2017-11-14T16:28:00.518Z,30.05
2017-11-14T16:30:27.949Z,29.20
2017-11-14T16:32:55.394Z,30.98
2017-11-14T16:35:22.830Z,31.37
2017-11-14T16:37:50.262Z,30.80
2017-11-14T16:40:17.710Z,40.33
2017-11-14T16:42:45.134Z,29.92
2017-11-14T16:45:12.558Z,32.38
2017-11-14T16:47:40.002Z,31.77
2017-11-14T16:50:07.429Z,31.10
2017-11-14T16:52:34.863Z,29.67
2017-11-14T16:55:02.306Z,31.70
2017-11-14T16:57:29.981Z,29.15
2017-11-14T16:59:57.425Z,27.70
2017-11-14T17:02:24.866Z,31.30
2017-11-14T17:04:52.354Z,28.92
2017-11-14T17:07:19.776Z,29.90
2017-11-14T17:09:47.217Z,30.40
2017-11-14T17:12:14.642Z,29.52
2017-11-14T17:14:42.067Z,29.58
2017-11-14T17:17:09.522Z,29.08
2017-11-14T17:19:36.957Z,30.85
2017-11-14T17:22:04.382Z,31.23
2017-11-14T17:24:31.822Z,31.80
2017-11-14T17:26:59.245Z,33.22
2017-11-14T17:29:26.684Z,32.90
2017-11-14T17:31:58.914Z,30.90
2017-11-14T17:34:26.351Z,31.80
2017-11-14T17:36:53.804Z,30.25
2017-11-14T17:39:21.263Z,33.17
2017-11-14T17:41:48.710Z,32.33
2017-11-14T17:44:16.139Z,30.58
2017-11-14T17:46:43.598Z,30.90
2017-11-14T17:49:11.022Z,30.62
2017-11-14T17:51:38.475Z,29.75
2017-11-14T17:54:05.919Z,29.30
2017-11-14T17:56:33.355Z,29.70
2017-11-14T17:59:00.807Z,30.10
2017-11-14T18:01:28.269Z,34.28
2017-11-14T18:03:55.688Z,32.72
2017-11-14T18:06:23.127Z,33.10
2017-11-14T18:08:52.691Z,36.08
2017-11-14T18:11:20.126Z,39.20
2017-11-14T18:13:47.686Z,37.05
2017-11-14T18:16:15.134Z,34.60
2017-11-14T18:18:42.566Z,33.88
2017-11-14T18:21:11.382Z,32.08
2017-11-14T18:23:39.113Z,32.15
2017-11-14T18:26:06.542Z,32.95
2017-11-14T18:28:34.031Z,34.30
2017-11-14T18:31:01.467Z,42.45
2017-11-14T18:33:28.892Z,39.42
2017-11-14T18:35:56.356Z,37.75
2017-11-14T18:38:23.810Z,38.08
2017-11-14T18:40:51.257Z,39.50
2017-11-14T18:43:21.366Z,39.40
2017-11-14T18:45:49.230Z,41.85
2017-11-14T18:48:16.675Z,40.12
2017-11-14T18:50:44.189Z,39.30
2017-11-14T18:53:11.641Z,42.62
2017-11-14T18:55:39.090Z,45.33
2017-11-14T18:58:08.055Z,46.75
2017-11-14T19:00:35.502Z,52.38
2017-11-14T19:03:02.927Z,47.00
2017-11-14T19:05:30.381Z,48.20
2017-11-14T19:07:57.903Z,45.53
2017-11-14T19:10:26.223Z,40.72
2017-11-14T19:12:53.695Z,37.40
2017-11-14T19:15:21.250Z,37.05
2017-11-14T19:17:54.927Z,34.67
2017-11-14T19:20:22.375Z,36.63
2017-11-14T19:22:49.799Z,36.42
2017-11-14T19:25:22.222Z,36.25
2017-11-14T19:27:50.933Z,33.40
2017-11-14T19:30:18.965Z,34.35
2017-11-14T19:32:47.048Z,37.42
2017-11-14T19:35:15.012Z,34.22
2017-11-14T19:37:45.517Z,35.25
2017-11-14T19:40:13.752Z,36.10
2017-11-14T19:42:42.094Z,34.60
2017-11-14T19:45:10.614Z,36.65
2017-11-14T19:47:38.958Z,37.05
2017-11-14T19:50:07.465Z,39.13
2017-11-14T19:52:35.936Z,39.15
2017-11-14T19:55:04.841Z,38.13
2017-11-14T19:57:33.318Z,36.40
2017-11-14T20:00:02.174Z,38.95
2017-11-14T20:02:31.445Z,38.95
2017-11-14T20:04:59.857Z,39.65
2017-11-14T20:07:28.359Z,37.55
2017-11-14T20:09:56.755Z,38.30
2017-11-14T20:12:31.539Z,46.47
2017-11-14T20:15:00.827Z,39.60
2017-11-14T20:17:29.412Z,42.60
2017-11-14T20:19:57.890Z,44.83
2017-11-14T20:22:26.276Z,40.50
2017-11-14T20:24:54.874Z,40.72
2017-11-14T20:27:23.253Z,40.45
2017-11-14T20:29:51.716Z,40.75
2017-11-14T20:32:20.256Z,39.63
2017-11-14T20:34:56.317Z,38.10
2017-11-14T20:37:28.258Z,38.20
2017-11-14T20:39:56.967Z,39.08
2017-11-14T20:42:33.468Z,40.95
2017-11-14T20:45:02.421Z,40.75
2017-11-14T20:47:36.739Z,38.42
2017-11-14T20:50:05.671Z,41.67
2017-11-14T20:52:34.870Z,39.95
2017-11-14T20:55:03.643Z,40.28
2017-11-14T20:57:32.215Z,36.85
2017-11-14T21:00:00.880Z,39.50
2017-11-14T21:02:29.587Z,39.55
2017-11-14T21:04:59.266Z,38.40
2017-11-14T21:07:28.045Z,41.15
2017-11-14T21:12:37.138Z,40.35
2017-11-14T21:15:05.854Z,39.97
2017-11-14T21:17:34.227Z,40.85
2017-11-14T21:20:02.857Z,39.40
2017-11-14T21:22:31.177Z,41.75
2017-11-14T21:24:59.923Z,39.28
2017-11-14T21:27:28.503Z,37.80
2017-11-14T21:29:56.841Z,42.17
2017-11-14T21:32:25.350Z,37.85
2017-11-14T21:34:53.010Z,40.58
2017-11-14T21:37:21.993Z,38.97
2017-11-14T21:39:49.502Z,38.17
2017-11-14T21:42:16.938Z,40.22
2017-11-14T21:44:44.394Z,39.13
2017-11-14T21:47:11.855Z,38.50
2017-11-14T21:49:39.294Z,40.58
2017-11-14T21:52:06.736Z,38.00
2017-11-14T21:54:34.194Z,38.47
2017-11-14T21:57:01.627Z,40.10
2017-11-14T21:59:29.049Z,37.72
2017-11-14T22:01:56.499Z,39.40
2017-11-14T22:04:23.941Z,37.95
2017-11-14T22:06:51.371Z,37.15
2017-11-14T22:09:18.806Z,39.53
2017-11-14T22:11:46.229Z,40.67
2017-11-14T22:14:13.654Z,40.67
2017-11-14T22:16:41.093Z,39.90
2017-11-14T22:19:08.527Z,40.15
2017-11-14T22:21:35.975Z,39.90
2017-11-14T22:24:03.417Z,40.80
2017-11-14T22:26:30.836Z,40.97
2017-11-14T22:28:58.294Z,38.42
2017-11-14T22:31:25.722Z,39.95
2017-11-14T22:33:53.161Z,45.33
2017-11-14T22:36:20.605Z,43.00
2017-11-14T22:38:48.041Z,41.25
2017-11-14T22:41:15.464Z,47.35
2017-11-14T22:43:42.914Z,45.60
2017-11-14T22:46:10.341Z,41.20
2017-11-14T22:48:37.774Z,43.30
2017-11-14T22:51:05.225Z,42.22
2017-11-14T22:53:32.650Z,42.95
2017-11-14T22:56:00.077Z,45.25
2017-11-14T22:58:27.534Z,43.55
2017-11-14T23:00:54.970Z,43.05
2017-11-14T23:03:22.397Z,43.95
2017-11-14T23:05:49.846Z,41.83
2017-11-14T23:08:17.269Z,42.45
2017-11-14T23:10:44.699Z,41.55
2017-11-14T23:13:12.141Z,43.97
2017-11-14T23:15:39.572Z,42.75
2017-11-14T23:18:07.007Z,42.33
2017-11-14T23:20:34.453Z,43.42
2017-11-14T23:23:01.882Z,40.40
2017-11-14T23:25:29.310Z,42.78
2017-11-14T23:27:56.910Z,41.72
2017-11-14T23:30:24.389Z,40.47
2017-11-14T23:32:51.814Z,42.65
2017-11-14T23:35:19.261Z,42.62
2017-11-14T23:37:46.693Z,42.62
2017-11-14T23:40:14.261Z,41.35
2017-11-14T23:42:41.716Z,41.85
2017-11-14T23:45:09.163Z,43.15
2017-11-14T23:47:36.591Z,44.47
2017-11-14T23:50:04.034Z,46.70
2017-11-14T23:52:31.481Z,48.33
2017-11-14T23:54:58.914Z,47.40
2017-11-14T23:57:26.346Z,48.42
2017-11-14T23:59:53.794Z,49.75
